createdAt,value
2018-03-21T00:00:22.178Z,5.34
2018-03-21T00:02:50.570Z,5.42
2018-03-21T00:05:18.952Z,5.43
2018-03-21T00:07:47.380Z,5.04
2018-03-21T00:10:15.760Z,5.28
2018-03-21T00:12:44.270Z,5.36
2018-03-21T00:15:12.644Z,5.55
2018-03-21T00:17:41.073Z,5.58
2018-03-21T00:34:58.793Z,5.71
2018-03-21T00:37:27.217Z,5.78
2018-03-21T00:39:55.606Z,5.82
2018-03-21T00:42:24.020Z,5.70
2018-03-21T00:44:52.429Z,5.87
2018-03-21T00:47:20.808Z,5.85
2018-03-21T00:49:49.168Z,5.83
2018-03-21T00:52:17.578Z,5.88
2018-03-21T00:54:45.973Z,5.88
2018-03-21T00:57:14.448Z,5.99
2018-03-21T00:59:42.858Z,5.85
2018-03-21T01:02:11.232Z,5.92
2018-03-21T01:04:39.685Z,6.00
2018-03-21T01:07:08.105Z,5.93
2018-03-21T01:09:36.528Z,5.72
2018-03-21T01:12:04.904Z,5.55
2018-03-21T01:14:33.376Z,5.37
2018-03-21T01:17:01.747Z,5.26
2018-03-21T01:19:30.113Z,5.12
2018-03-21T01:21:58.516Z,5.09
2018-03-21T01:24:26.903Z,4.87
2018-03-21T01:26:55.326Z,4.93
2018-03-21T01:29:23.717Z,5.04
2018-03-21T01:31:52.122Z,5.18
2018-03-21T01:34:20.496Z,5.08
2018-03-21T01:36:48.946Z,5.05
2018-03-21T01:39:17.393Z,5.27
2018-03-21T01:41:45.830Z,5.23
2018-03-21T01:44:14.255Z,5.09
2018-03-21T01:46:42.704Z,5.09
2018-03-21T01:49:11.140Z,5.23
2018-03-21T01:51:39.538Z,5.34
2018-03-21T01:54:07.911Z,5.25
2018-03-21T01:56:36.324Z,5.27
2018-03-21T01:59:04.772Z,4.92
2018-03-21T02:01:33.208Z,5.03
2018-03-21T02:04:01.600Z,4.98
2018-03-21T02:06:30.014Z,4.67
2018-03-21T02:08:58.361Z,5.31
2018-03-21T02:11:26.794Z,5.32
2018-03-21T02:13:55.240Z,5.34
2018-03-21T02:16:23.649Z,5.19
2018-03-21T02:18:52.051Z,5.15
2018-03-21T02:21:20.484Z,5.23
2018-03-21T02:23:49.272Z,5.29
2018-03-21T02:26:17.739Z,5.33
2018-03-21T02:28:46.141Z,5.32
2018-03-21T02:31:14.525Z,5.23
2018-03-21T02:33:42.992Z,5.04
2018-03-21T02:36:11.374Z,4.97
2018-03-21T02:38:39.802Z,4.94
2018-03-21T02:41:08.202Z,4.97
2018-03-21T02:43:36.593Z,4.77
2018-03-21T02:46:04.959Z,4.77
2018-03-21T02:48:33.371Z,4.72
2018-03-21T02:51:01.737Z,4.81
2018-03-21T02:53:30.150Z,4.69
2018-03-21T02:55:58.529Z,4.71
2018-03-21T02:58:26.938Z,4.45
2018-03-21T03:00:55.386Z,4.31
2018-03-21T03:03:23.785Z,4.46
2018-03-21T03:05:52.242Z,4.51
2018-03-21T03:08:20.984Z,4.58
2018-03-21T03:10:49.444Z,4.57
2018-03-21T03:13:17.838Z,4.63
2018-03-21T03:15:46.213Z,4.26
2018-03-21T03:18:14.652Z,4.09
2018-03-21T03:20:43.030Z,3.81
2018-03-21T03:23:11.424Z,4.05
2018-03-21T03:25:39.828Z,4.08
2018-03-21T03:28:08.272Z,4.13
2018-03-21T03:30:36.637Z,3.99
2018-03-21T03:33:05.009Z,4.08
2018-03-21T03:35:33.432Z,4.04
2018-03-21T03:38:01.861Z,3.92
2018-03-21T03:40:30.236Z,3.93
2018-03-21T03:42:58.654Z,4.11
2018-03-21T03:45:27.068Z,4.15
2018-03-21T03:47:55.480Z,4.06
2018-03-21T03:50:23.861Z,4.15
2018-03-21T03:52:52.254Z,4.09
2018-03-21T03:55:20.653Z,3.83
2018-03-21T03:57:49.044Z,3.87
2018-03-21T04:00:17.456Z,3.95
2018-03-21T04:02:45.835Z,3.94
2018-03-21T04:05:14.241Z,3.97
2018-03-21T04:07:42.681Z,3.89
2018-03-21T04:10:11.136Z,3.89
2018-03-21T04:12:39.582Z,3.86
2018-03-21T04:15:07.960Z,4.12
2018-03-21T04:17:36.405Z,4.34
2018-03-21T04:20:04.893Z,4.06
2018-03-21T04:22:33.269Z,4.22
2018-03-21T04:25:01.685Z,4.29
2018-03-21T04:27:30.069Z,4.26
2018-03-21T04:29:58.472Z,4.11
2018-03-21T04:32:26.846Z,4.06
2018-03-21T04:34:55.282Z,4.47
2018-03-21T04:37:23.689Z,4.42
2018-03-21T04:39:52.077Z,4.40
2018-03-21T04:42:20.516Z,4.71
2018-03-21T04:44:48.957Z,4.82
2018-03-21T04:47:17.389Z,4.47
2018-03-21T04:49:45.906Z,4.28
2018-03-21T04:52:14.389Z,4.54
2018-03-21T04:54:42.855Z,4.66
2018-03-21T04:57:11.269Z,4.46
2018-03-21T04:59:39.689Z,4.81
2018-03-21T05:02:08.132Z,4.94
2018-03-21T05:04:36.606Z,4.50
2018-03-21T05:07:05.053Z,4.88
2018-03-21T05:09:33.517Z,4.65
2018-03-21T05:12:01.901Z,4.39
2018-03-21T05:14:30.299Z,4.71
2018-03-21T05:16:58.716Z,4.76
2018-03-21T05:19:27.083Z,4.82
2018-03-21T05:21:55.538Z,4.95
2018-03-21T05:24:23.943Z,5.16
2018-03-21T05:26:52.363Z,5.42
2018-03-21T05:29:20.797Z,5.49
2018-03-21T05:31:49.313Z,5.70
2018-03-21T05:34:17.700Z,5.66
2018-03-21T05:36:46.169Z,5.81
2018-03-21T05:39:14.620Z,5.88
2018-03-21T05:41:43.085Z,5.87
2018-03-21T05:44:11.612Z,6.06
2018-03-21T05:46:40.017Z,6.16
2018-03-21T05:49:08.461Z,6.08
2018-03-21T05:51:37.848Z,6.27
2018-03-21T05:54:06.316Z,6.27
2018-03-21T05:56:34.916Z,5.91
2018-03-21T05:59:03.463Z,6.02
2018-03-21T06:01:31.893Z,6.31
2018-03-21T06:04:00.322Z,6.29
2018-03-21T06:06:28.681Z,6.32
2018-03-21T06:08:57.106Z,6.33
2018-03-21T06:11:25.481Z,6.30
2018-03-21T06:13:53.844Z,6.04
2018-03-21T06:16:22.325Z,6.18
2018-03-21T06:18:50.746Z,5.93
2018-03-21T06:21:19.169Z,5.98
2018-03-21T06:23:47.815Z,6.26
2018-03-21T06:26:16.194Z,6.50
2018-03-21T06:28:44.769Z,6.63
2018-03-21T06:31:13.205Z,6.66
2018-03-21T06:33:41.940Z,6.45
2018-03-21T06:36:10.384Z,6.94
2018-03-21T06:38:38.869Z,7.01
2018-03-21T06:41:07.489Z,6.90
2018-03-21T06:43:35.908Z,6.72
2018-03-21T06:46:04.290Z,7.06
2018-03-21T06:48:32.724Z,7.24
2018-03-21T06:51:01.130Z,7.47
2018-03-21T06:53:29.760Z,7.52
2018-03-21T06:55:58.160Z,7.68
2018-03-21T06:58:26.633Z,7.82
2018-03-21T07:00:55.066Z,7.48
2018-03-21T07:03:23.478Z,7.72
2018-03-21T07:05:51.904Z,7.87
2018-03-21T07:08:20.289Z,7.82
2018-03-21T07:10:48.739Z,7.55
2018-03-21T07:13:17.209Z,7.62
2018-03-21T07:15:57.351Z,7.61
2018-03-21T07:18:25.756Z,7.58
2018-03-21T07:20:54.174Z,7.34
2018-03-21T07:23:22.628Z,7.22
2018-03-21T07:25:51.065Z,7.20
2018-03-21T07:28:19.468Z,7.24
2018-03-21T07:30:47.888Z,7.11
2018-03-21T07:33:16.298Z,7.13
2018-03-21T07:35:44.700Z,7.42
2018-03-21T07:38:13.069Z,7.60
2018-03-21T07:40:41.503Z,7.94
2018-03-21T07:43:09.913Z,8.07
2018-03-21T07:45:38.276Z,8.20
2018-03-21T07:48:06.732Z,8.20
2018-03-21T07:50:35.192Z,8.29
2018-03-21T07:53:03.561Z,8.41
2018-03-21T07:55:31.987Z,8.38
2018-03-21T07:58:00.371Z,8.27
2018-03-21T08:00:28.817Z,8.32
2018-03-21T08:02:57.321Z,8.34
2018-03-21T08:05:25.780Z,8.05
2018-03-21T08:07:54.171Z,8.36
2018-03-21T08:10:22.540Z,8.14
2018-03-21T08:12:50.941Z,8.32
2018-03-21T08:15:19.351Z,8.84
2018-03-21T08:17:47.725Z,9.07
2018-03-21T08:20:16.156Z,9.58
2018-03-21T08:22:44.521Z,9.64
2018-03-21T08:25:12.965Z,9.09
2018-03-21T08:27:41.392Z,9.28
2018-03-21T08:30:09.812Z,9.40
2018-03-21T08:32:38.230Z,9.37
2018-03-21T08:35:06.652Z,9.45
2018-03-21T08:37:35.064Z,9.17
2018-03-21T08:40:03.460Z,9.27
2018-03-21T08:42:31.881Z,9.49
2018-03-21T08:45:00.524Z,9.56
2018-03-21T08:47:28.929Z,9.66
2018-03-21T08:49:57.372Z,9.49
2018-03-21T08:52:25.740Z,9.16
2018-03-21T08:54:54.108Z,9.34
2018-03-21T08:57:22.544Z,9.07
2018-03-21T08:59:50.944Z,8.86
2018-03-21T09:02:19.324Z,8.90
2018-03-21T09:04:47.738Z,8.63
2018-03-21T09:07:16.113Z,9.25
2018-03-21T09:09:44.661Z,9.47
2018-03-21T09:12:13.114Z,9.71
2018-03-21T09:14:41.496Z,9.30
2018-03-21T09:17:09.873Z,9.03
2018-03-21T09:19:38.309Z,9.50
2018-03-21T09:22:06.727Z,9.68
2018-03-21T09:24:35.149Z,9.90
2018-03-21T09:27:03.557Z,10.10
2018-03-21T09:29:32.065Z,10.02
2018-03-21T09:32:00.470Z,9.81
2018-03-21T09:34:28.924Z,9.43
2018-03-21T09:36:57.337Z,9.07
2018-03-21T09:39:25.705Z,8.55
2018-03-21T09:41:54.077Z,8.28
2018-03-21T09:44:22.476Z,7.89
2018-03-21T09:46:50.841Z,7.93
2018-03-21T09:49:19.193Z,7.94
2018-03-21T09:51:47.597Z,8.25
2018-03-21T09:54:16.072Z,8.73
2018-03-21T09:56:44.580Z,8.91
2018-03-21T09:59:12.963Z,9.28
2018-03-21T10:01:41.399Z,9.83
2018-03-21T10:04:09.784Z,10.16
2018-03-21T10:06:38.204Z,10.39
2018-03-21T10:09:06.660Z,10.00
2018-03-21T10:11:35.118Z,9.81
2018-03-21T10:14:03.527Z,10.06
2018-03-21T10:16:31.936Z,10.02
2018-03-21T10:19:00.350Z,10.19
2018-03-21T10:21:28.936Z,10.34
2018-03-21T10:23:57.380Z,10.87
2018-03-21T10:26:25.744Z,10.25
2018-03-21T10:28:54.206Z,10.30
2018-03-21T10:31:22.576Z,10.05
2018-03-21T10:33:50.976Z,10.57
2018-03-21T10:36:19.416Z,10.65
2018-03-21T10:38:47.829Z,10.43
2018-03-21T10:41:16.245Z,9.78
2018-03-21T10:43:44.660Z,9.52
2018-03-21T10:46:13.032Z,9.10
2018-03-21T10:48:41.388Z,8.88
2018-03-21T10:51:09.795Z,9.16
2018-03-21T10:53:38.252Z,9.29
2018-03-21T10:56:06.629Z,9.13
2018-03-21T10:58:35.060Z,9.12
2018-03-21T11:04:02.948Z,9.18
2018-03-21T11:06:31.480Z,9.45
2018-03-21T11:08:59.808Z,9.48
2018-03-21T11:11:28.217Z,9.66
2018-03-21T11:13:56.584Z,9.97
2018-03-21T11:16:25.148Z,10.17
2018-03-21T11:18:53.568Z,10.11
2018-03-21T11:21:22.088Z,9.83
2018-03-21T11:23:50.469Z,10.18
2018-03-21T11:26:18.916Z,10.57
2018-03-21T11:28:48.351Z,10.53
2018-03-21T11:31:17.128Z,11.31
2018-03-21T11:33:45.838Z,10.88
2018-03-21T11:36:14.600Z,10.74
2018-03-21T11:38:43.056Z,10.83
2018-03-21T11:43:47.348Z,11.06
2018-03-21T11:46:15.884Z,10.34
2018-03-21T11:48:44.321Z,10.65
2018-03-21T11:51:12.730Z,11.18
2018-03-21T11:53:41.083Z,11.24
2018-03-21T11:56:09.544Z,10.94
2018-03-21T11:58:37.921Z,10.64
2018-03-21T12:01:06.342Z,10.59
2018-03-21T12:03:34.934Z,10.33
2018-03-21T12:06:03.403Z,10.83
2018-03-21T12:08:31.826Z,11.70
2018-03-21T12:11:00.241Z,12.62
2018-03-21T12:13:28.632Z,12.81
2018-03-21T12:15:56.997Z,13.62
2018-03-21T12:18:25.640Z,13.59
2018-03-21T12:20:54.010Z,13.49
2018-03-21T12:23:23.073Z,14.10
2018-03-21T12:25:51.544Z,12.28
2018-03-21T12:28:19.977Z,10.38
2018-03-21T12:30:48.416Z,9.93
2018-03-21T12:33:16.781Z,9.66
2018-03-21T12:35:45.152Z,9.82
2018-03-21T12:38:13.586Z,10.20
2018-03-21T12:40:42.233Z,10.76
2018-03-21T12:43:10.637Z,10.10
2018-03-21T12:45:39.044Z,8.71
2018-03-21T12:48:07.409Z,7.26
2018-03-21T12:50:35.816Z,6.36
2018-03-21T12:53:04.230Z,5.45
2018-03-21T12:55:32.654Z,4.90
2018-03-21T12:58:01.030Z,5.19
2018-03-21T13:00:29.488Z,5.44
2018-03-21T13:02:57.873Z,4.03
2018-03-21T13:05:26.286Z,4.17
2018-03-21T13:07:54.656Z,3.37
2018-03-21T13:10:23.080Z,3.65
2018-03-21T13:12:51.504Z,2.84
2018-03-21T13:15:19.904Z,2.92
2018-03-21T13:17:48.317Z,2.99
2018-03-21T13:20:16.696Z,3.33
2018-03-21T13:22:45.132Z,2.88
2018-03-21T13:25:13.536Z,2.87
2018-03-21T13:27:41.908Z,2.72
2018-03-21T13:30:10.371Z,2.34
2018-03-21T13:32:38.784Z,2.48
2018-03-21T13:35:07.148Z,2.82
2018-03-21T13:37:35.551Z,2.63
2018-03-21T13:40:03.964Z,2.63
2018-03-21T13:42:32.353Z,2.70
2018-03-21T13:45:00.782Z,2.29
2018-03-21T13:47:29.207Z,2.64
2018-03-21T13:49:57.628Z,2.57
2018-03-21T13:52:26.000Z,2.64
2018-03-21T13:54:54.447Z,2.92
2018-03-21T13:57:22.837Z,2.40
2018-03-21T13:59:51.249Z,2.37
2018-03-21T14:02:19.624Z,2.45
2018-03-21T14:04:48.207Z,2.50
2018-03-21T14:07:16.588Z,2.44
2018-03-21T14:09:45.168Z,2.87
2018-03-21T14:12:13.596Z,2.89
2018-03-21T14:14:41.968Z,2.48
2018-03-21T14:17:10.393Z,2.68
2018-03-21T14:19:38.797Z,2.49
2018-03-21T14:22:07.241Z,2.41
2018-03-21T14:24:35.653Z,2.18
2018-03-21T14:27:04.129Z,2.25
2018-03-21T14:29:32.553Z,2.15
2018-03-21T14:32:00.957Z,1.96
2018-03-21T14:34:29.365Z,2.00
2018-03-21T14:36:57.740Z,2.24
2018-03-21T14:39:26.171Z,2.28
2018-03-21T14:41:54.581Z,2.18
2018-03-21T14:44:22.952Z,1.89
2018-03-21T14:46:51.615Z,1.91
2018-03-21T14:49:20.013Z,2.03
2018-03-21T14:51:48.379Z,2.07
2018-03-21T14:54:16.800Z,2.22
2018-03-21T14:56:45.199Z,2.24
2018-03-21T14:59:13.601Z,2.08
2018-03-21T15:01:42.011Z,1.82
2018-03-21T15:04:10.386Z,1.91
2018-03-21T15:06:38.821Z,2.14
2018-03-21T15:09:07.208Z,2.02
2018-03-21T15:11:36.349Z,1.98
2018-03-21T15:14:04.768Z,1.96
2018-03-21T15:16:33.156Z,2.04
2018-03-21T15:19:01.586Z,1.92
2018-03-21T15:21:30.045Z,2.06
2018-03-21T15:23:58.576Z,2.15
2018-03-21T15:26:27.005Z,1.95
2018-03-21T15:28:55.372Z,1.98
2018-03-21T15:31:23.753Z,1.93
2018-03-21T15:33:52.185Z,1.61
2018-03-21T15:36:20.680Z,1.69
2018-03-21T15:38:49.179Z,1.61
2018-03-21T15:41:17.725Z,1.58
2018-03-21T15:43:46.149Z,1.59
2018-03-21T15:46:14.521Z,1.41
2018-03-21T15:48:42.898Z,1.51
2018-03-21T15:51:11.440Z,1.43
2018-03-21T15:53:39.773Z,1.29
2018-03-21T15:56:08.202Z,1.38
2018-03-21T15:58:36.672Z,0.95
2018-03-21T16:01:05.076Z,0.90
2018-03-21T16:03:33.457Z,0.95
2018-03-21T16:06:01.886Z,0.88
2018-03-21T16:08:30.281Z,1.22
2018-03-21T16:10:58.673Z,1.24
2018-03-21T16:13:27.081Z,1.07
2018-03-21T16:15:55.494Z,1.16
2018-03-21T16:18:23.881Z,1.02
2018-03-21T16:20:52.290Z,1.03
2018-03-21T16:23:20.704Z,0.94
2018-03-21T16:25:49.215Z,0.97
2018-03-21T16:28:17.580Z,0.97
2018-03-21T16:30:46.077Z,0.96
2018-03-21T16:33:14.597Z,0.83
2018-03-21T16:35:43.133Z,0.90
2018-03-21T16:38:11.602Z,0.79
2018-03-21T16:40:39.960Z,0.73
2018-03-21T16:43:08.406Z,0.74
2018-03-21T16:45:36.802Z,0.90
2018-03-21T16:48:05.228Z,0.67
2018-03-21T16:50:33.758Z,0.71
2018-03-21T16:53:02.180Z,0.57
2018-03-21T16:55:30.581Z,0.40
2018-03-21T16:57:59.543Z,0.52
2018-03-21T17:00:27.981Z,0.51
2018-03-21T17:02:56.453Z,0.72
2018-03-21T17:05:24.897Z,0.41
2018-03-21T17:07:53.261Z,0.56
2018-03-21T17:10:21.756Z,0.70
2018-03-21T17:12:50.164Z,0.63
2018-03-21T17:15:18.640Z,0.51
2018-03-21T17:17:47.000Z,0.67
2018-03-21T17:20:15.368Z,0.53
2018-03-21T17:22:43.797Z,0.27
2018-03-21T17:25:12.184Z,0.26
2018-03-21T17:27:40.581Z,0.27
2018-03-21T17:30:09.045Z,0.45
2018-03-21T17:32:38.162Z,0.31
2018-03-21T17:35:06.627Z,0.25
2018-03-21T17:37:35.468Z,0.21
2018-03-21T17:40:04.013Z,0.23
2018-03-21T17:42:32.511Z,0.24
2018-03-21T17:45:00.892Z,0.09
2018-03-21T17:47:29.334Z,0.04
2018-03-21T17:49:58.150Z,0.14
2018-03-21T17:52:26.657Z,0.06
2018-03-21T17:54:56.076Z,0.08
2018-03-21T17:57:25.714Z,-0.12
2018-03-21T17:59:54.928Z,-0.22
2018-03-21T18:02:24.137Z,-0.16
2018-03-21T18:04:52.591Z,-0.40
2018-03-21T18:07:21.685Z,-0.46
2018-03-21T18:09:50.220Z,-0.47
2018-03-21T18:12:18.581Z,-0.39
2018-03-21T18:14:46.995Z,-0.42
2018-03-21T18:17:15.408Z,-0.33
2018-03-21T18:19:43.900Z,-0.31
2018-03-21T18:22:12.324Z,-0.23
2018-03-21T18:24:40.712Z,-0.26
2018-03-21T18:27:09.169Z,-0.21
2018-03-21T18:29:37.561Z,-0.15
2018-03-21T18:32:06.017Z,-0.08
2018-03-21T18:34:34.448Z,-0.33
2018-03-21T18:37:02.875Z,-0.24
2018-03-21T18:39:31.440Z,-0.52
2018-03-21T18:41:59.808Z,-0.46
2018-03-21T18:44:28.224Z,-0.33
2018-03-21T18:46:57.040Z,-0.56
2018-03-21T18:49:25.600Z,-0.53
2018-03-21T18:51:53.965Z,-0.54
2018-03-21T18:54:22.393Z,-0.65
2018-03-21T18:56:50.830Z,-0.61
2018-03-21T18:59:19.469Z,-0.62
2018-03-21T19:01:48.117Z,-0.43
2018-03-21T19:04:16.515Z,-0.54
2018-03-21T19:06:44.894Z,-0.46
2018-03-21T19:09:13.441Z,-0.24
2018-03-21T19:11:41.841Z,-0.31
2018-03-21T19:14:10.279Z,-0.24
2018-03-21T19:16:38.651Z,-0.37
2018-03-21T19:19:07.096Z,-0.28
2018-03-21T19:21:35.536Z,-0.12
2018-03-21T19:24:04.076Z,-0.25
2018-03-21T19:26:32.445Z,0.00
2018-03-21T19:29:00.866Z,-0.16
2018-03-21T19:31:29.244Z,-0.27
2018-03-21T19:33:57.691Z,-0.51
2018-03-21T19:36:26.045Z,-0.42
2018-03-21T19:38:54.493Z,-0.37
2018-03-21T19:41:22.962Z,-0.59
2018-03-21T19:43:51.445Z,-0.59
2018-03-21T19:46:19.853Z,-0.68
2018-03-21T19:48:48.249Z,-0.96
2018-03-21T19:51:16.701Z,-1.05
2018-03-21T19:53:45.140Z,-1.09
2018-03-21T19:56:13.518Z,-0.80
2018-03-21T19:58:41.929Z,-1.00
2018-03-21T20:01:10.349Z,-0.99
2018-03-21T20:03:38.737Z,-0.82
2018-03-21T20:06:07.157Z,-0.95
2018-03-21T20:08:35.596Z,-0.89
2018-03-21T20:11:04.020Z,-0.87
2018-03-21T20:13:32.459Z,-0.71
2018-03-21T20:16:00.925Z,-0.66
2018-03-21T20:18:29.341Z,-0.77
2018-03-21T20:20:57.754Z,-0.68
2018-03-21T20:23:26.236Z,-0.79
2018-03-21T20:25:54.664Z,-0.92
2018-03-21T20:28:23.056Z,-0.91
2018-03-21T20:30:51.472Z,-1.24
2018-03-21T20:33:19.865Z,-1.21
2018-03-21T20:35:49.068Z,-1.01
2018-03-21T20:38:17.441Z,-1.24
2018-03-21T20:40:45.832Z,-1.14
2018-03-21T20:43:14.262Z,-1.18
2018-03-21T20:45:42.677Z,-1.18
2018-03-21T20:48:11.098Z,-1.34
2018-03-21T20:50:39.508Z,-1.27
2018-03-21T20:53:07.929Z,-1.16
2018-03-21T20:55:36.304Z,-1.10
2018-03-21T20:58:04.775Z,-0.98
2018-03-21T21:00:33.237Z,-0.89
2018-03-21T21:03:01.610Z,-0.68
2018-03-21T21:05:30.079Z,-0.85
2018-03-21T21:07:58.473Z,-1.02
2018-03-21T21:10:26.887Z,-1.01
2018-03-21T21:12:55.296Z,-1.09
2018-03-21T21:15:23.713Z,-0.97
2018-03-21T21:17:52.116Z,-0.86
2018-03-21T21:20:20.505Z,-0.92
2018-03-21T21:22:48.947Z,-0.91
2018-03-21T21:25:17.389Z,-1.00
2018-03-21T21:27:45.772Z,-0.91
2018-03-21T21:30:14.193Z,-0.98
2018-03-21T21:32:42.608Z,-1.14
2018-03-21T21:35:10.993Z,-1.02
2018-03-21T21:37:39.592Z,-0.94
2018-03-21T21:40:07.998Z,-1.02
2018-03-21T21:42:36.436Z,-0.96
2018-03-21T21:45:04.802Z,-0.90
2018-03-21T21:47:33.246Z,-0.92
2018-03-21T21:50:01.679Z,-0.99
2018-03-21T21:52:30.089Z,-0.76
2018-03-21T21:54:58.587Z,-0.87
2018-03-21T21:57:27.052Z,-1.21
2018-03-21T21:59:55.469Z,-0.99
2018-03-21T22:02:23.941Z,-0.92
2018-03-21T22:04:52.280Z,-0.93
2018-03-21T22:07:20.657Z,-1.03
2018-03-21T22:09:49.079Z,-1.01
2018-03-21T22:12:23.080Z,-1.13
2018-03-21T22:14:51.450Z,-0.97
2018-03-21T22:17:19.822Z,-1.09
2018-03-21T22:19:48.239Z,-1.14
2018-03-21T22:22:16.959Z,-1.24
2018-03-21T22:24:45.339Z,-1.48
2018-03-21T22:27:13.767Z,-1.09
2018-03-21T22:29:42.197Z,-1.15
2018-03-21T22:32:10.628Z,-1.09
2018-03-21T22:34:39.042Z,-1.10
2018-03-21T22:37:07.429Z,-1.17
2018-03-21T22:39:36.176Z,-1.19
2018-03-21T22:42:04.610Z,-0.87
2018-03-21T22:44:32.997Z,-1.06
2018-03-21T22:47:01.400Z,-0.86
2018-03-21T22:49:29.818Z,-1.04
2018-03-21T22:51:58.220Z,-0.87
2018-03-21T22:54:26.721Z,-1.00
2018-03-21T22:56:55.040Z,-1.05
2018-03-21T22:59:23.405Z,-0.81
2018-03-21T23:01:51.838Z,-0.79
2018-03-21T23:04:20.281Z,-1.03
2018-03-21T23:06:48.675Z,-0.92
2018-03-21T23:09:17.120Z,-0.96
2018-03-21T23:11:45.513Z,-0.82
2018-03-21T23:14:13.978Z,-0.81
2018-03-21T23:16:42.343Z,-1.08
2018-03-21T23:19:10.768Z,-0.65
2018-03-21T23:21:39.255Z,-1.03
2018-03-21T23:24:07.673Z,-0.90
2018-03-21T23:26:36.075Z,-0.91
2018-03-21T23:29:04.509Z,-1.21
2018-03-21T23:31:32.937Z,-0.96
2018-03-21T23:34:01.353Z,-1.33
2018-03-21T23:36:29.781Z,-1.30
2018-03-21T23:38:58.206Z,-1.44
2018-03-21T23:41:26.666Z,-1.49
2018-03-21T23:43:55.084Z,-1.87
2018-03-21T23:46:23.501Z,-1.42
2018-03-21T23:48:51.905Z,-1.59
2018-03-21T23:51:20.310Z,-1.44
2018-03-21T23:53:48.804Z,-1.46
2018-03-21T23:56:17.221Z,-1.64
2018-03-21T23:58:45.637Z,-1.68
